Terminal Aerodrome Forecast
Issued by NWS

Home | Current Version | Previous Version | Text Only | Print | Product List | Glossary On
Versions: 1 2 3 4 5 6 7 8 9 10 11 12 13 14 15 16 17 18
000
FTUS43 KDVN 222109 AAB
TAFCID
TAF AMD
KCID 222109Z 2221/2318 24005KT P6SM BKN030 BKN250
     FM222300 22005KT P6SM VCTS SCT030CB SCT120
      TEMPO 2223/2301 VRB15G20KT 3SM TSRA BR BKN020CB
     FM230100 15004KT 6SM -RA BR VCTS SCT010CB OVC035
     FM230900 13003KT 3SM BR SCT010 OVC035
     FM231500 16007KT 6SM HZ SCT010 BKN035=

USA.gov is the U.S. government's official web portal to all federal, state and local government web resources and services.